Station: Mount Stuart (Defence)  

  Atmospheric Gas Attenuation - ITU Rec 676-11   ----------------- dB/100km -----------------
Date Time Temp RH % AH g/m3 Dew Point Wind Direction Speed kph Gust kph Barometer mB Rainfall Since 9am 24GHz 47GHz 76GHz 122GHz 134GHz 241GHz
08/05 12:30 28.2 51 14.02 17.1 9 15 1013.1 0 30.2 30.1 52.9 139.7 146.5 508.6
08/05 12:20 27.8 50 13.45 16.7 9 13 1013.1 0 29.0 29.3 51.0 134.5 140.0 485.5
08/05 12:10 28.6 50 14.05 17.4 6 7 1013.1 0 30.2 30.0 52.8 139.3 146.2 507.3
08/05 12:00 27.8 51 13.72 17 11 19 1013.1 0 29.6 29.7 52.0 137.3 143.4 497.6
08/05 11:50 27.8 52 13.99 17.3 9 13 1013.1 0 30.1 30.1 53.1 140.1 146.9 509.8
08/05 11:40 27.9 52 14.06 17.4 7 9 1013.1 0 30.3 30.2 53.3 140.7 147.6 512.3
08/05 11:30 27.4 54 14.21 17.3 13 24 1013.1 0 30.6 30.6 54.2 143.2 150.5 522.4
08/05 11:20 27 55 14.16 17.4 11 19 1013.1 0 30.6 30.7 54.3 143.4 150.6 522.8
08/05 11:10 27.2 53 13.79 17 9 15 1013.1 0 29.8 30.0 52.7 139.1 145.4 504.6
08/05 11:00 26.8 54 13.74 16.7 9 20 1013.1 0 29.7 30.1 52.8 139.2 145.5 504.9
08/05 10:50 26.1 53 12.98 16 13 19 1013.1 0 28.2 29.1 50.2 132.4 136.9 474.8
08/05 10:40 25.5 55 13.02 16 13 17 1013.1 0 28.3 29.4 50.8 133.9 138.5 480.3
08/05 10:30 25.5 54 12.78 15.5 13 20 1013.1 0 27.8 29.0 49.8 131.3 135.4 469.4
08/05 10:20 25.3 55 12.88 15.6 13 17 1013.1 0 28.0 29.2 50.3 132.7 137.1 475.1
08/05 10:10 24.7 54 12.22 15 11 17 1013.1 0 26.7 28.4 48.1 126.8 129.6 448.9
08/05 10:00 24.2 56 12.32 14.9 13 24 1013.1 0 26.9 28.7 48.8 128.6 131.7 456.2
08/05 09:50 24.9 57 13.05 15.8 6 7 1013.1 0 28.4 29.6 51.3 135.2 140.0 485.3
08/05 09:40 24.1 56 12.25 15 7 11 1013.1 0 26.8 28.6 48.6 128.1 131.0 453.6
08/05 09:30 24.5 59 13.2 16 13 26 1013.1 0 28.7 30.0 52.1 137.5 142.7 494.7
08/05 09:20 23.8 59 12.69 15.3 11 17 1013.1 0 27.7 29.4 50.5 133.2 137.2 475.5
08/05 09:10 23.3 60 12.54 15.3 9 13 1013.1 0 27.4 29.3 50.2 132.5 136.1 471.6
08/05 09:00 23.3 59 12.34 14.8 15 30 1013.1 0 27.0 29.0 49.4 130.3 133.5 462.4
08/05 08:50 22.9 60 12.26 14.7 9 15 1013.1 0 26.9 29.0 49.4 130.1 133.1 461.1
08/05 08:40 23.3 57 11.92 14.3 17 22 1013.1 0 26.1 28.3 47.8 125.9 128.0 443.3
08/05 08:30 23.6 57 12.12 14.6 7 15 1013.1 0 26.5 28.6 48.4 127.5 130.1 450.6
08/05 08:20 23.7 59 12.62 15.2 7 9 1013.1 0 27.6 29.3 50.3 132.6 136.5 472.9
08/05 08:10 22.6 61 12.25 14.9 7 11 1013.1 0 26.9 29.1 49.5 130.5 133.5 462.4
08/05 08:00 22.2 62 12.17 14.6 9 22 1013.1 0 26.7 29.1 49.5 130.3 133.1 461.0
08/05 07:50 21.6 65 12.33 14.9 7 11 1013.1 0 27.1 29.6 50.5 133.1 136.3 472.1
08/05 07:40 21.9 65 12.54 15.2 11 17 1013.1 0 27.5 29.8 51.2 134.8 138.6 480.1
08/05 07:30 21.7 66 12.59 15.1 11 17 1013.1 0 27.6 29.9 51.5 135.7 139.6 483.7
08/05 07:20 21.3 67 12.49 14.9 13 20 1013.1 0 27.4 29.9 51.3 135.3 139.0 481.4
08/05 07:10 20.8 69 12.49 14.9 11 15 1013.1 0 27.5 30.1 51.7 136.2 139.9 484.5
08/05 07:00 20.7 69 12.42 14.8 17 26 1013.1 0 27.3 30.0 51.4 135.6 139.1 481.8
08/05 06:50 20.8 71 12.85 15.3 13 15 1013.1 0 28.2 30.7 53.2 140.2 144.9 501.8
08/05 06:40 20.6 75 13.42 16 11 17 1013.1 0 29.5 31.7 55.7 147.1 153.2 530.9
08/05 06:30 20.5 81 14.41 17.1 13 24 1013.1 0 31.6 33.5 60.1 158.8 167.6 581.0
08/05 06:20 20.7 83 14.94 17.7 13 17 1013.1 0 32.7 34.4 62.4 164.7 174.9 606.5
08/05 06:10 20.5 87 15.48 18.2 15 22 1013.1 0 33.9 35.5 65.0 171.6 183.4 636.1
08/05 06:00 20.7 91 16.38 19.2 9 17 1013.1 0 35.8 37.1 69.0 182.3 196.5 681.9
08/05 05:50 20.7 92 16.56 19.3 11 17 1013.1 0 36.2 37.4 69.8 184.5 199.3 691.5
08/05 05:40 20.8 93 16.84 19.6 11 19 1013.1 0 36.8 37.9 71.1 187.8 203.4 705.7
08/05 05:30 20.9 93 16.94 19.7 7 13 1013.1 0 37.0 38.0 71.4 188.8 204.7 710.1
08/05 05:20 20.7 90 16.2 19.1 7 7 1013.1 0 35.4 36.7 68.1 180.0 193.8 672.3
08/05 05:10 20.9 90 16.39 19.3 7 7 1013.1 0 35.8 37.0 68.8 181.9 196.2 680.6
08/05 05:00 20.8 90 16.29 19.1 6 17 1013.1 0 35.6 36.8 68.5 180.9 194.9 676.2
08/05 04:50 20.5 89 15.83 18.6 2 2 1013.1 0 34.6 36.1 66.6 175.9 188.7 654.5
08/05 04:40 20.4 89 15.74 18.5 4 4 1013.1 0 34.4 36.0 66.3 175.1 187.6 650.6
08/05 04:30 20.6 89 15.93 18.7 4 6 1013.1 0 34.8 36.3 67.0 176.9 189.9 658.9
08/05 04:20 20.6 89 15.93 18.7 4 6 1013.1 0 34.8 36.3 67.0 176.9 189.9 658.9
08/05 04:10 20.7 88 15.84 18.6 7 9 1013.1 0 34.6 36.0 66.5 175.6 188.3 653.3
08/05 04:00 20.8 89 16.11 18.9 6 9 1013.1 0 35.2 36.5 67.6 178.7 192.2 666.7
08/05 03:50 20.8 89 16.11 18.9 7 11 1013.1 0 35.2 36.5 67.6 178.7 192.2 666.7
08/05 03:40 21 89 16.3 19.1 6 6 1013.1 0 35.6 36.8 68.3 180.6 194.5 675.0
08/05 03:30 20.9 90 16.39 19.2 7 13 1013.1 0 35.8 37.0 68.8 181.9 196.2 680.6
08/05 03:20 20.7 92 16.56 19.3 6 7 1013.1 0 36.2 37.4 69.8 184.5 199.3 691.5
08/05 03:10 20.5 94 16.72 19.5 4 6 1013.1 0 36.5 37.8 70.8 187.1 202.3 702.0
08/05 03:00 20.6 95 17 19.8 4 7 1013.1 0 37.1 38.3 72.0 190.4 206.4 716.2
08/05 02:50 20.6 95 17 19.7 6 7 1013.1 0 37.1 38.3 72.0 190.4 206.4 716.2
08/05 02:40 20.6 95 17 19.7 6 6 1013.1 0 37.1 38.3 72.0 190.4 206.4 716.2
08/05 02:30 20.7 94 16.92 19.7 6 7 1013.1 0 36.9 38.1 71.5 189.1 204.9 711.0
08/05 02:20 20.8 95 17.2 19.9 6 6 1013.1 0 37.5 38.6 72.8 192.4 209.0 725.2
08/05 02:10 20.9 95 17.3 20 6 7 1013.1 0 37.7 38.7 73.2 193.4 210.3 729.7
08/05 02:00 20.9 95 17.3 20.1 6 7 1013.1 0 37.7 38.7 73.2 193.4 210.3 729.7
08/05 01:50 20.8 95 17.2 19.9 6 6 1013.1 0 37.5 38.6 72.8 192.4 209.0 725.2
08/05 01:40 20.9 95 17.3 20 6 6 1013.1 0 37.7 38.7 73.2 193.4 210.3 729.7
08/05 01:30 21.1 95 17.5 20.3 6 9 1013.1 0 38.2 39.0 73.9 195.5 212.8 738.7
08/05 01:20 21.2 95 17.6 20.3 4 6 1013.1 0 38.4 39.2 74.3 196.5 214.1 743.2
08/05 01:10 21.1 94 17.32 20.1 6 6 1013.1 0 37.8 38.7 73.1 193.2 210.0 728.9
08/05 01:00 21.3 94 17.52 20.3 4 6 1013.1 0 38.2 39.0 73.8 195.2 212.6 737.8
08/05 00:50 21.1 92 16.95 19.7 4 6 1013.1 0 37.0 38.0 71.3 188.5 204.3 708.8
08/05 00:40 21.2 92 17.05 19.8 4 4 1013.1 0 37.2 38.1 71.7 189.5 205.5 713.3
08/05 00:30 21.3 92 17.15 19.9 4 7 1013.1 0 37.4 38.2 72.1 190.5 206.8 717.7
08/05 00:20 21.3 91 16.96 19.7 6 6 1013.1 0 37.0 37.9 71.2 188.1 203.9 707.5
08/05 00:10 21.4 91 17.06 19.8 7 7 1013.1 0 37.2 38.0 71.5 189.1 205.1 711.9
08/05 00:00 21.4 90 16.87 19.7 7 9 1013.1 0 36.8 37.7 70.6 186.7 202.2 701.7
07/05 23:50 21.6 89 16.88 19.7 9 9 1013.1 0 36.8 37.6 70.5 186.3 201.8 700.4
07/05 23:40 21.7 88 16.79 19.6 7 7 1013.1 0 36.6 37.4 70.0 185.0 200.2 694.7
07/05 23:30 21.7 89 16.98 19.8 9 11 1013.1 0 37.0 37.7 70.9 187.4 203.1 704.8
07/05 23:20 21.6 89 16.88 19.7 7 7 1013.1 0 36.8 37.6 70.5 186.3 201.8 700.4
07/05 23:10 21.7 88 16.79 19.6 7 7 1013.1 0 36.6 37.4 70.0 185.0 200.2 694.7
07/05 23:00 21.9 86 16.59 19.5 7 9 1013.1 0 36.1 36.9 68.9 182.0 196.6 682.2
07/05 22:50 21.9 87 16.79 19.6 7 9 1013.1 0 36.6 37.3 69.8 184.5 199.6 692.8
07/05 22:40 22 87 16.88 19.7 7 9 1013.1 0 36.7 37.4 70.1 185.4 200.7 696.7
07/05 22:30 22.1 86 16.79 19.6 7 9 1013.1 0 36.5 37.2 69.6 184.0 199.1 691.0
07/05 22:20 22.1 86 16.79 19.6 9 9 1013.1 0 36.5 37.2 69.6 184.0 199.1 691.0
07/05 22:10 22.1 86 16.79 19.6 7 7 1013.1 0 36.5 37.2 69.6 184.0 199.1 691.0
07/05 22:00 22.3 86 16.98 19.8 7 9 1013.1 0 36.9 37.5 70.3 185.9 201.5 699.2
07/05 21:50 22.4 85 16.88 19.7 7 9 1013.1 0 36.7 37.2 69.8 184.4 199.7 693.0
07/05 21:40 22.5 84 16.78 19.6 9 13 1013.1 0 36.5 37.0 69.2 182.9 197.9 686.8
07/05 21:30 22.8 84 17.07 20 7 13 1013.1 0 37.1 37.4 70.3 185.8 201.5 699.4
07/05 21:20 23 83 17.06 19.9 11 13 1013.1 0 37.0 37.3 70.0 185.2 200.8 697.0
07/05 21:10 22.9 84 17.17 20 11 15 1013.1 0 37.3 37.6 70.6 186.8 202.7 703.7
07/05 21:00 22.9 85 17.37 20.2 11 17 1013.1 0 37.7 37.9 71.6 189.2 205.8 714.3
07/05 20:50 23 85 17.47 20.3 11 13 1013.1 0 37.9 38.1 71.9 190.2 207.0 718.7
07/05 20:40 23 85 17.47 20.3 11 15 1013.1 0 37.9 38.1 71.9 190.2 207.0 718.7
07/05 20:30 23.1 84 17.36 20.2 11 17 1013.1 0 37.7 37.8 71.3 188.6 205.1 711.9
07/05 20:20 23.1 83 17.16 20 9 11 1013.1 0 37.2 37.5 70.4 186.1 202.0 701.4
07/05 20:10 23.2 82 17.05 19.9 9 13 1013.1 0 37.0 37.2 69.8 184.5 200.1 694.7
07/05 20:00 23.2 82 17.05 20 9 15 1013.1 0 37.0 37.2 69.8 184.5 200.1 694.7

Last Refresh: 08-May-2026 12:08:01

Bureau of Meteorology